createdAt,value
2023-02-22T00:01:19.242Z,3.40
2023-02-22T00:03:52.207Z,3.72
2023-02-22T00:06:21.404Z,2.92
2023-02-22T00:08:49.816Z,4.18
2023-02-22T00:11:21.022Z,2.10
2023-02-22T00:13:50.470Z,5.57
2023-02-22T00:16:24.100Z,5.05
2023-02-22T00:18:53.758Z,3.33
2023-02-22T00:21:23.963Z,3.70
2023-02-22T00:23:50.915Z,4.25
2023-02-22T00:26:20.740Z,3.50
2023-02-22T00:28:53.369Z,3.33
2023-02-22T00:31:21.001Z,3.05
2023-02-22T00:33:51.573Z,3.08
2023-02-22T00:36:20.656Z,5.15
2023-02-22T00:38:52.979Z,3.17
2023-02-22T00:41:22.530Z,3.97
2023-02-22T00:43:50.238Z,3.45
2023-02-22T00:46:19.450Z,4.50
2023-02-22T00:48:46.197Z,2.38
2023-02-22T00:51:15.679Z,3.95
2023-02-22T00:53:42.964Z,4.35
2023-02-22T00:56:09.798Z,4.95
2023-02-22T00:58:47.533Z,3.05
2023-02-22T01:01:17.631Z,4.47
2023-02-22T01:03:47.652Z,4.75
2023-02-22T01:06:19.817Z,4.50
2023-02-22T01:08:49.134Z,3.17
2023-02-22T01:11:17.560Z,4.43
2023-02-22T01:13:54.196Z,4.10
2023-02-22T01:16:23.139Z,4.43
2023-02-22T01:18:49.975Z,2.72
2023-02-22T01:21:21.185Z,4.20
2023-02-22T01:23:50.034Z,3.85
2023-02-22T01:26:19.137Z,6.68
2023-02-22T01:28:46.632Z,2.92
2023-02-22T01:31:17.198Z,3.95
2023-02-22T01:33:46.381Z,6.13
2023-02-22T01:36:16.985Z,4.82
2023-02-22T01:38:51.552Z,3.92
2023-02-22T01:41:23.101Z,5.03
2023-02-22T01:43:50.016Z,3.40
2023-02-22T01:46:31.628Z,4.20
2023-02-22T01:49:11.131Z,4.30
2023-02-22T01:51:40.826Z,3.63
2023-02-22T01:54:30.414Z,3.55
2023-02-22T01:57:10.051Z,3.47
2023-02-22T01:59:49.001Z,4.07
2023-02-22T02:02:19.052Z,4.05
2023-02-22T02:04:49.187Z,4.57
2023-02-22T02:07:18.650Z,2.50
2023-02-22T02:12:16.640Z,5.88
2023-02-22T02:14:45.844Z,4.50
2023-02-22T02:17:18.632Z,4.50
2023-02-22T02:20:01.218Z,4.85
2023-02-22T02:22:42.853Z,5.03
2023-02-22T02:25:26.669Z,3.72
2023-02-22T02:28:10.995Z,3.58
2023-02-22T02:31:25.867Z,3.22
2023-02-22T02:34:24.336Z,4.13
2023-02-22T02:37:00.238Z,3.47
2023-02-22T02:39:39.745Z,4.30
2023-02-22T02:42:08.718Z,4.00
2023-02-22T02:44:48.004Z,5.05
2023-02-22T02:47:22.529Z,4.68
2023-02-22T02:50:00.630Z,4.78
2023-02-22T02:52:29.465Z,3.70
2023-02-22T02:54:57.078Z,4.20
2023-02-22T02:57:24.760Z,3.45
2023-02-22T02:59:51.673Z,4.82
2023-02-22T03:02:45.039Z,4.25
2023-02-22T03:05:17.090Z,3.17
2023-02-22T03:07:52.739Z,5.10
2023-02-22T03:10:39.122Z,4.28
2023-02-22T03:13:17.718Z,4.03
2023-02-22T03:16:12.800Z,4.55
2023-02-22T03:19:08.087Z,3.65
2023-02-22T03:21:55.547Z,3.55
2023-02-22T03:24:27.863Z,5.47
2023-02-22T03:27:02.982Z,3.30
2023-02-22T03:29:35.661Z,3.95
2023-02-22T03:32:06.035Z,5.82
2023-02-22T03:34:40.958Z,3.28
2023-02-22T03:37:17.694Z,3.97
2023-02-22T03:39:49.916Z,5.65
2023-02-22T03:42:25.296Z,4.20
2023-02-22T03:44:53.727Z,3.40
2023-02-22T03:47:30.051Z,4.28
2023-02-22T03:50:07.147Z,3.20
2023-02-22T03:52:35.746Z,3.15
2023-02-22T03:55:04.248Z,5.47
2023-02-22T03:57:34.814Z,2.88
2023-02-22T04:00:09.061Z,4.88
2023-02-22T04:02:42.753Z,5.95
2023-02-22T04:05:14.907Z,3.92
2023-02-22T04:07:44.062Z,4.50
2023-02-22T04:10:13.183Z,4.55
2023-02-22T04:12:42.726Z,4.22
2023-02-22T04:15:18.174Z,6.20
2023-02-22T04:17:48.001Z,3.50
2023-02-22T04:20:20.055Z,6.25
2023-02-22T04:23:01.258Z,3.53
2023-02-22T04:25:29.332Z,5.60
2023-02-22T04:27:57.111Z,6.97
2023-02-22T04:30:35.251Z,4.88
2023-02-22T04:33:03.800Z,4.20
2023-02-22T04:35:31.429Z,4.82
2023-02-22T04:37:59.591Z,3.97
2023-02-22T04:40:27.220Z,3.58
2023-02-22T04:42:56.673Z,4.28
2023-02-22T04:45:24.100Z,3.88
2023-02-22T04:47:51.017Z,4.07
2023-02-22T04:50:22.850Z,4.57
2023-02-22T04:52:51.967Z,4.53
2023-02-22T04:55:18.969Z,6.38
2023-02-22T04:57:48.493Z,4.45
2023-02-22T05:00:21.801Z,3.70
2023-02-22T05:02:54.461Z,4.65
2023-02-22T05:05:23.292Z,7.90
2023-02-22T05:07:50.772Z,5.22
2023-02-22T05:10:17.606Z,4.55
2023-02-22T05:12:44.422Z,5.35
2023-02-22T05:15:15.789Z,4.35
2023-02-22T05:17:42.688Z,7.88
2023-02-22T05:20:19.690Z,11.45
2023-02-22T05:22:49.293Z,3.63
2023-02-22T05:25:16.223Z,4.18
2023-02-22T05:27:43.006Z,4.80
2023-02-22T05:30:12.654Z,6.82
2023-02-22T05:32:42.008Z,4.43
2023-02-22T05:35:14.060Z,5.55
2023-02-22T05:37:43.560Z,4.95
2023-02-22T05:42:42.251Z,5.20
2023-02-22T05:45:18.263Z,5.35
2023-02-22T05:47:45.928Z,4.07
2023-02-22T05:50:13.807Z,7.93
2023-02-22T05:52:43.346Z,6.53
2023-02-22T05:55:14.994Z,8.88
2023-02-22T05:57:42.037Z,7.53
2023-02-22T06:00:15.242Z,5.75
2023-02-22T06:02:44.930Z,6.72
2023-02-22T06:05:14.085Z,6.93
2023-02-22T06:07:43.033Z,8.07
2023-02-22T06:10:10.286Z,6.03
2023-02-22T06:12:45.723Z,8.27
2023-02-22T06:15:15.188Z,6.80
2023-02-22T06:17:47.712Z,6.45
2023-02-22T06:20:16.597Z,8.98
2023-02-22T06:22:54.060Z,6.47
2023-02-22T06:25:30.947Z,7.95
2023-02-22T06:27:59.530Z,10.55
2023-02-22T06:30:27.997Z,6.25
2023-02-22T06:32:55.249Z,8.20
2023-02-22T06:35:22.960Z,9.10
2023-02-22T06:38:24.731Z,11.70
2023-02-22T06:40:58.375Z,6.45
2023-02-22T06:43:26.235Z,12.38
2023-02-22T06:45:53.572Z,7.95
2023-02-22T06:48:20.802Z,8.95
2023-02-22T06:50:52.349Z,9.07
2023-02-22T06:53:19.184Z,9.07
2023-02-22T06:55:48.286Z,6.28
2023-02-22T06:58:17.141Z,9.50
2023-02-22T07:00:46.192Z,10.68
2023-02-22T07:03:16.531Z,7.75
2023-02-22T07:05:48.461Z,14.23
2023-02-22T07:08:20.540Z,8.60
2023-02-22T07:10:50.465Z,7.10
2023-02-22T07:13:17.192Z,5.78
2023-02-22T07:15:46.754Z,8.10
2023-02-22T07:18:16.220Z,8.70
2023-02-22T07:20:46.335Z,8.20
2023-02-22T07:23:17.191Z,9.43
2023-02-22T07:25:44.017Z,6.85
2023-02-22T07:28:11.674Z,6.47
2023-02-22T07:30:38.531Z,6.68
2023-02-22T07:35:43.799Z,7.93
2023-02-22T07:38:10.530Z,5.05
2023-02-22T07:40:40.103Z,5.60
2023-02-22T07:43:16.725Z,5.15
2023-02-22T07:45:44.188Z,5.82
2023-02-22T07:48:15.093Z,6.38
2023-02-22T07:50:43.636Z,6.32
2023-02-22T07:53:15.981Z,8.70
2023-02-22T07:55:43.655Z,5.00
2023-02-22T07:58:17.892Z,7.22
2023-02-22T08:00:52.576Z,7.25
2023-02-22T08:03:24.751Z,7.28
2023-02-22T08:05:56.638Z,6.05
2023-02-22T08:08:26.302Z,4.93
2023-02-22T08:10:55.352Z,5.80
2023-02-22T08:13:27.028Z,5.50
2023-02-22T08:15:54.320Z,5.65
2023-02-22T08:18:21.954Z,6.05
2023-02-22T08:20:52.298Z,5.70
2023-02-22T08:23:21.149Z,8.40
2023-02-22T08:25:52.812Z,6.15
2023-02-22T08:28:23.280Z,7.47
2023-02-22T08:30:50.874Z,7.03
2023-02-22T08:33:21.599Z,7.45
2023-02-22T08:35:49.744Z,6.35
2023-02-22T08:38:23.113Z,4.82
2023-02-22T08:40:52.516Z,5.45
2023-02-22T08:43:26.736Z,7.18
2023-02-22T08:45:57.781Z,5.70
2023-02-22T08:48:27.047Z,6.28
2023-02-22T08:50:53.964Z,8.32
2023-02-22T08:53:20.718Z,7.72
2023-02-22T08:55:49.886Z,6.78
2023-02-22T08:58:16.915Z,8.20
2023-02-22T09:00:46.352Z,5.22
2023-02-22T09:03:14.871Z,7.53
2023-02-22T09:05:43.058Z,7.55
2023-02-22T09:08:13.065Z,6.03
2023-02-22T09:10:40.718Z,6.32
2023-02-22T09:13:07.572Z,7.53
2023-02-22T09:15:41.006Z,5.03
2023-02-22T09:18:10.560Z,7.28
2023-02-22T09:20:37.661Z,5.38
2023-02-22T09:23:05.808Z,4.93
2023-02-22T09:25:35.810Z,6.13
2023-02-22T09:28:05.343Z,6.03
2023-02-22T09:30:34.316Z,6.43
2023-02-22T09:33:07.088Z,7.43
2023-02-22T09:35:37.508Z,5.95
2023-02-22T09:38:06.495Z,8.00
2023-02-22T09:40:44.786Z,9.23
2023-02-22T09:43:35.792Z,7.93
2023-02-22T09:46:35.449Z,5.97
2023-02-22T09:49:16.487Z,4.70
2023-02-22T09:52:13.963Z,6.20
2023-02-22T09:54:51.977Z,7.60
2023-02-22T09:57:49.326Z,6.78
2023-02-22T10:00:29.607Z,9.40
2023-02-22T10:03:03.743Z,6.72
2023-02-22T10:05:44.935Z,7.20
2023-02-22T10:08:18.985Z,8.20
2023-02-22T10:10:52.824Z,8.20
2023-02-22T10:13:29.397Z,13.45
2023-02-22T10:16:12.720Z,11.27
2023-02-22T10:19:00.276Z,9.93
2023-02-22T10:21:45.679Z,10.65
2023-02-22T10:24:28.211Z,8.95
2023-02-22T10:26:58.257Z,9.82
2023-02-22T10:29:27.622Z,10.43
2023-02-22T10:31:58.428Z,10.52
2023-02-22T10:34:33.559Z,8.82
2023-02-22T10:37:31.121Z,10.43
2023-02-22T10:40:22.994Z,10.25
2023-02-22T10:42:54.671Z,9.48
2023-02-22T10:47:59.198Z,8.60
2023-02-22T10:50:34.874Z,11.75
2023-02-22T10:53:04.146Z,10.20
2023-02-22T10:58:12.131Z,11.02
2023-02-22T11:00:39.694Z,10.23
2023-02-22T11:03:17.964Z,15.10
2023-02-22T11:05:44.885Z,14.30
2023-02-22T11:08:35.839Z,9.75
2023-02-22T11:11:24.803Z,9.75
2023-02-22T11:13:56.056Z,10.38
2023-02-22T11:16:38.634Z,15.30
2023-02-22T11:19:43.866Z,9.00
2023-02-22T11:22:12.147Z,10.70
2023-02-22T11:24:49.387Z,9.33
2023-02-22T11:27:25.500Z,13.15
2023-02-22T11:29:57.117Z,12.90
2023-02-22T11:32:24.793Z,11.27
2023-02-22T11:35:08.445Z,13.38
2023-02-22T11:37:38.793Z,10.32
2023-02-22T11:40:17.955Z,11.77
2023-02-22T11:45:21.809Z,16.20
2023-02-22T11:47:55.475Z,10.52
2023-02-22T11:50:33.827Z,10.25
2023-02-22T11:53:03.570Z,9.00
2023-02-22T11:55:43.394Z,8.60
2023-02-22T11:58:28.649Z,15.23
2023-02-22T12:01:17.374Z,14.80
2023-02-22T12:04:16.173Z,13.02
2023-02-22T12:07:04.392Z,10.27
2023-02-22T12:09:41.593Z,11.60
2023-02-22T12:12:10.649Z,16.23
2023-02-22T12:14:55.970Z,11.93
2023-02-22T12:17:59.397Z,13.90
2023-02-22T12:20:37.625Z,13.75
2023-02-22T12:23:19.823Z,14.90
2023-02-22T12:26:03.962Z,10.10
2023-02-22T12:28:40.174Z,12.25
2023-02-22T12:31:14.888Z,11.63
2023-02-22T12:34:01.212Z,12.40
2023-02-22T12:36:42.951Z,11.48
2023-02-22T12:39:52.208Z,10.20
2023-02-22T12:42:30.624Z,11.50
2023-02-22T12:45:05.112Z,15.18
2023-02-22T12:47:39.256Z,15.15
2023-02-22T12:50:20.950Z,11.82
2023-02-22T12:52:58.208Z,17.80
2023-02-22T12:56:16.108Z,12.00
2023-02-22T12:59:31.610Z,9.77
2023-02-22T13:02:10.009Z,11.68
2023-02-22T13:04:39.565Z,12.20
2023-02-22T13:07:27.993Z,19.00
2023-02-22T13:10:41.676Z,11.63
2023-02-22T13:13:27.064Z,15.85
2023-02-22T13:16:08.142Z,15.05
2023-02-22T13:18:50.197Z,11.38
2023-02-22T13:21:37.210Z,10.43
2023-02-22T13:24:45.098Z,13.80
2023-02-22T13:27:23.044Z,17.40
2023-02-22T13:29:55.683Z,12.05
2023-02-22T13:32:31.613Z,15.15
2023-02-22T13:35:16.628Z,14.90
2023-02-22T13:37:49.590Z,15.02
2023-02-22T13:40:41.436Z,13.05
2023-02-22T13:43:26.503Z,12.18
2023-02-22T13:45:56.317Z,13.70
2023-02-22T13:48:43.015Z,14.70
2023-02-22T13:51:50.959Z,10.27
2023-02-22T13:54:21.148Z,13.00
2023-02-22T13:56:49.570Z,13.63
2023-02-22T13:59:27.641Z,14.77
2023-02-22T14:01:58.994Z,11.98
2023-02-22T14:04:28.952Z,13.70
2023-02-22T14:07:01.010Z,9.82
2023-02-22T14:09:51.883Z,10.20
2023-02-22T14:12:33.456Z,13.73
2023-02-22T14:15:28.178Z,11.90
2023-02-22T14:17:59.860Z,11.00
2023-02-22T14:20:37.483Z,10.10
2023-02-22T14:23:26.178Z,17.65
2023-02-22T14:26:00.369Z,12.07
2023-02-22T14:28:50.572Z,14.02
2023-02-22T14:31:35.460Z,13.68
2023-02-22T14:34:05.479Z,13.50
2023-02-22T14:36:42.795Z,17.25
2023-02-22T14:39:14.208Z,10.85
2023-02-22T14:41:53.991Z,13.65
2023-02-22T14:44:33.116Z,14.65
2023-02-22T14:47:05.188Z,14.88
2023-02-22T14:49:36.764Z,9.52
2023-02-22T14:52:08.456Z,13.57
2023-02-22T14:54:43.967Z,13.00
2023-02-22T14:57:30.449Z,10.07
2023-02-22T15:00:02.382Z,13.80
2023-02-22T15:02:38.954Z,14.55
2023-02-22T15:05:08.283Z,10.40
2023-02-22T15:10:21.023Z,19.35
2023-02-22T15:13:12.677Z,15.88
2023-02-22T15:15:47.483Z,10.05
2023-02-22T15:18:22.539Z,17.13
2023-02-22T15:20:56.264Z,13.38
2023-02-22T15:23:43.714Z,13.75
2023-02-22T15:26:19.599Z,13.02
2023-02-22T15:28:47.748Z,10.60
2023-02-22T15:31:25.530Z,10.98
2023-02-22T15:33:53.485Z,8.68
2023-02-22T15:36:21.498Z,10.27
2023-02-22T15:38:50.470Z,8.65
2023-02-22T15:41:28.019Z,10.95
2023-02-22T15:44:08.042Z,12.90
2023-02-22T15:46:43.202Z,11.97
2023-02-22T15:49:12.194Z,8.75
2023-02-22T15:51:46.463Z,10.23
2023-02-22T15:54:26.443Z,11.18
2023-02-22T15:57:00.212Z,11.02
2023-02-22T15:59:33.299Z,11.85
2023-02-22T16:02:03.106Z,10.35
2023-02-22T16:04:30.512Z,10.40
2023-02-22T16:07:16.985Z,13.77
2023-02-22T16:09:49.241Z,14.00
2023-02-22T16:12:23.809Z,14.85
2023-02-22T16:14:52.560Z,14.77
2023-02-22T16:17:49.287Z,12.25
2023-02-22T16:20:24.999Z,13.90
2023-02-22T16:22:57.793Z,11.70
2023-02-22T16:25:35.559Z,14.45
2023-02-22T16:28:30.820Z,14.07
2023-02-22T16:30:58.630Z,10.20
2023-02-22T16:33:29.797Z,14.15
2023-02-22T16:35:58.797Z,15.77
2023-02-22T16:38:27.651Z,12.93
2023-02-22T16:40:55.994Z,11.70
2023-02-22T16:43:29.460Z,12.95
2023-02-22T16:46:02.015Z,17.77
2023-02-22T16:48:32.975Z,18.15
2023-02-22T16:51:03.320Z,11.98
2023-02-22T16:53:33.008Z,15.57
2023-02-22T16:56:05.090Z,12.52
2023-02-22T16:58:40.002Z,14.93
2023-02-22T17:01:07.193Z,14.65
2023-02-22T17:03:33.961Z,15.20
2023-02-22T17:06:00.833Z,17.13
2023-02-22T17:08:27.885Z,17.60
2023-02-22T17:10:57.019Z,15.63
2023-02-22T17:13:27.593Z,19.08
2023-02-22T17:15:55.041Z,17.33
2023-02-22T17:18:28.689Z,13.80
2023-02-22T17:21:02.610Z,21.27
2023-02-22T17:23:29.605Z,14.70
2023-02-22T17:26:03.724Z,20.15
2023-02-22T17:28:31.134Z,14.48
2023-02-22T17:31:02.323Z,17.52
2023-02-22T17:33:33.247Z,14.73
2023-02-22T17:36:02.222Z,17.95
2023-02-22T17:38:30.437Z,16.60
2023-02-22T17:41:00.119Z,20.27
2023-02-22T17:43:28.031Z,23.92
2023-02-22T17:45:58.506Z,15.40
2023-02-22T17:48:26.163Z,18.77
2023-02-22T17:50:53.591Z,16.15
2023-02-22T17:53:25.382Z,21.67
2023-02-22T17:55:52.536Z,16.42
2023-02-22T17:58:22.723Z,21.35
2023-02-22T18:00:59.547Z,15.65
2023-02-22T18:03:32.140Z,21.15
2023-02-22T18:06:06.081Z,18.67
2023-02-22T18:08:32.828Z,19.83
2023-02-22T18:11:05.160Z,14.80
2023-02-22T18:13:34.162Z,18.00
2023-02-22T18:16:05.969Z,16.33
2023-02-22T18:18:32.903Z,17.02
2023-02-22T18:21:06.244Z,16.85
2023-02-22T18:23:33.731Z,17.77
2023-02-22T18:26:23.470Z,13.88
2023-02-22T18:28:49.167Z,16.30
2023-02-22T18:31:20.273Z,12.63
2023-02-22T18:33:52.436Z,13.60
2023-02-22T18:36:23.748Z,16.08
2023-02-22T18:38:55.515Z,13.32
2023-02-22T18:41:25.654Z,17.52
2023-02-22T18:43:55.314Z,15.27
2023-02-22T18:46:23.955Z,17.98
2023-02-22T18:48:53.747Z,16.70
2023-02-22T18:51:25.212Z,22.25
2023-02-22T18:54:00.242Z,13.48
2023-02-22T18:56:34.794Z,17.77
2023-02-22T18:59:02.891Z,18.42
2023-02-22T19:01:31.032Z,12.75
2023-02-22T19:03:58.148Z,12.85
2023-02-22T19:06:25.060Z,15.90
2023-02-22T19:08:54.978Z,17.85
2023-02-22T19:11:23.795Z,17.25
2023-02-22T19:13:54.671Z,18.58
2023-02-22T19:16:26.850Z,19.95
2023-02-22T19:18:57.637Z,19.38
2023-02-22T19:21:29.255Z,18.52
2023-02-22T19:24:05.463Z,19.63
2023-02-22T19:26:32.269Z,20.85
2023-02-22T19:29:04.777Z,16.85
2023-02-22T19:31:34.094Z,19.15
2023-02-22T19:34:11.147Z,18.67
2023-02-22T19:36:39.591Z,20.42
2023-02-22T19:39:06.430Z,16.10
2023-02-22T19:41:33.595Z,15.55
2023-02-22T19:44:05.330Z,20.73
2023-02-22T19:46:32.234Z,19.45
2023-02-22T19:49:01.981Z,24.13
2023-02-22T19:51:30.259Z,18.20
2023-02-22T19:54:05.065Z,18.92
2023-02-22T19:56:35.762Z,18.63
2023-02-22T19:59:13.462Z,22.08
2023-02-22T20:01:46.475Z,18.02
2023-02-22T20:04:18.828Z,19.98
2023-02-22T20:06:46.735Z,20.52
2023-02-22T20:09:19.014Z,19.45
2023-02-22T20:11:51.532Z,20.60
2023-02-22T20:14:26.497Z,23.15
2023-02-22T20:16:57.274Z,18.83
2023-02-22T20:19:27.021Z,21.42
2023-02-22T20:21:57.802Z,17.40
2023-02-22T20:24:27.101Z,19.00
2023-02-22T20:26:55.925Z,17.45
2023-02-22T20:29:29.646Z,16.63
2023-02-22T20:31:58.594Z,17.55
2023-02-22T20:34:32.486Z,20.63
2023-02-22T20:37:03.422Z,20.13
2023-02-22T20:39:36.871Z,17.00
2023-02-22T20:42:07.103Z,20.00
2023-02-22T20:44:33.988Z,18.38
2023-02-22T20:47:03.571Z,20.60
2023-02-22T20:49:32.874Z,20.83
2023-02-22T20:52:00.756Z,18.20
2023-02-22T20:54:29.912Z,19.55
2023-02-22T20:56:56.733Z,21.95
2023-02-22T20:59:24.057Z,17.65
2023-02-22T21:01:53.187Z,19.38
2023-02-22T21:04:22.235Z,18.30
2023-02-22T21:06:49.572Z,18.80
2023-02-22T21:09:19.056Z,20.95
2023-02-22T21:11:49.275Z,17.55
2023-02-22T21:14:18.987Z,17.77
2023-02-22T21:16:48.398Z,18.73
2023-02-22T21:19:28.224Z,18.67
2023-02-22T21:21:57.113Z,17.65
2023-02-22T21:24:25.805Z,17.58
2023-02-22T21:26:58.823Z,20.80
2023-02-22T21:29:28.999Z,21.20
2023-02-22T21:31:56.591Z,17.45
2023-02-22T21:34:24.088Z,17.48
2023-02-22T21:36:52.549Z,21.33
2023-02-22T21:39:28.720Z,17.52
2023-02-22T21:42:00.648Z,22.15
2023-02-22T21:44:31.756Z,19.02
2023-02-22T21:47:01.432Z,18.08
2023-02-22T21:49:28.930Z,19.08
2023-02-22T21:51:56.586Z,18.23
2023-02-22T21:54:23.661Z,22.33
2023-02-22T21:56:50.604Z,22.13
2023-02-22T21:59:20.562Z,20.13
2023-02-22T22:01:55.737Z,21.83
2023-02-22T22:04:30.633Z,18.55
2023-02-22T22:07:03.933Z,22.52
2023-02-22T22:09:36.616Z,16.83
2023-02-22T22:12:10.189Z,20.20
2023-02-22T22:14:37.652Z,18.10
2023-02-22T22:17:08.818Z,19.58
2023-02-22T22:19:39.569Z,23.90
2023-02-22T22:22:09.246Z,18.75
2023-02-22T22:24:36.887Z,21.45
2023-02-22T22:27:09.532Z,16.92
2023-02-22T22:29:36.526Z,24.88
2023-02-22T22:32:03.618Z,21.42
2023-02-22T22:34:34.839Z,20.42
2023-02-22T22:37:01.700Z,19.02
2023-02-22T22:39:31.050Z,16.25
2023-02-22T22:44:32.844Z,16.33
2023-02-22T22:47:00.372Z,18.50
2023-02-22T22:49:31.459Z,18.63
2023-02-22T22:51:58.227Z,17.48
2023-02-22T22:54:27.264Z,21.60
2023-02-22T22:56:56.262Z,21.05
2023-02-22T22:59:23.157Z,18.92
2023-02-22T23:01:52.188Z,16.50
2023-02-22T23:04:24.154Z,18.08
2023-02-22T23:06:55.131Z,19.73
2023-02-22T23:09:21.899Z,16.63
2023-02-22T23:12:08.975Z,19.35
2023-02-22T23:14:44.087Z,16.80
2023-02-22T23:17:31.301Z,16.42
2023-02-22T23:19:58.904Z,20.17
2023-02-22T23:22:27.553Z,21.25
2023-02-22T23:24:59.903Z,20.48
2023-02-22T23:27:28.325Z,19.25
2023-02-22T23:29:57.263Z,21.17
2023-02-22T23:32:24.118Z,20.65
2023-02-22T23:34:53.718Z,16.02
2023-02-22T23:37:21.151Z,17.63
2023-02-22T23:39:48.695Z,17.35
2023-02-22T23:42:17.055Z,19.95
2023-02-22T23:44:46.409Z,16.63
2023-02-22T23:49:49.425Z,16.95
2023-02-22T23:52:24.047Z,17.10
2023-02-22T23:54:53.787Z,23.65
2023-02-22T23:57:20.741Z,19.67
2023-02-22T23:59:51.403Z,19.90
